Time;durP1;ratioP1;P1;durP2;ratioP2;P2;SDS_P1;SDS_P2;PMS_P1;PMS_P2;Temp;Humidity;BMP_temperature;BMP_pressure;BME280_temperature;BME280_humidity;BME280_pressure;Samples;Min_cycle;Max_cycle;Signal;HPM_P1;HPM_P2
2021/12/17 00:05:06;;;;;;;13.57;7.60;;;;;;;4.42;97.17;101051.44;4436757;32;35578;-78
2021/12/17 00:07:51;;;;;;;13.68;8.05;;;;;;;4.58;95.98;101068.06;4437370;32;35075;-77
2021/12/17 00:10:38;;;;;;;12.70;7.93;;;;;;;4.43;95.92;101058.50;4435561;32;34941;-77
2021/12/17 00:13:27;;;;;;;12.70;6.80;;;;;;;4.23;96.31;101058.84;4435433;32;35308;-77
2021/12/17 00:16:21;;;;;;;11.95;6.85;;;;;;;4.60;95.09;101074.09;4436245;32;35647;-77
2021/12/17 00:50:00;;;;;;;9.75;4.93;;;;;;;4.34;87.99;101042.81;4436268;32;34425;-76
2021/12/17 00:52:48;;;;;;;11.85;5.32;;;;;;;4.35;87.58;101045.28;4434936;32;35412;-76
2021/12/17 00:55:37;;;;;;;9.63;4.93;;;;;;;4.33;87.55;101063.72;4436851;32;35973;-76
2021/12/17 00:58:23;;;;;;;11.00;5.55;;;;;;;4.17;88.17;101054.37;4435662;32;34909;-76
2021/12/17 01:01:10;;;;;;;11.05;5.40;;;;;;;4.13;88.08;101063.22;4437386;32;34471;-77
2021/12/17 01:03:57;;;;;;;8.77;4.75;;;;;;;4.23;87.42;101056.12;4436296;32;34595;-76
2021/12/17 01:06:44;;;;;;;9.73;4.65;;;;;;;4.10;87.46;101045.53;4437455;32;34556;-78
2021/12/17 01:09:31;;;;;;;10.02;5.10;;;;;;;4.21;87.16;101044.72;4432084;32;34975;-78
2021/12/17 01:12:19;;;;;;;9.15;5.15;;;;;;;4.00;87.71;101023.56;4437323;32;35339;-77
2021/12/17 01:15:08;;;;;;;9.25;4.78;;;;;;;3.98;87.57;101026.50;4436188;32;35487;-76
2021/12/17 01:18:01;;;;;;;9.52;5.28;;;;;;;3.99;87.55;101021.91;4434684;32;35972;-77
2021/12/17 01:24:10;;;;;;;9.38;4.57;;;;;;;4.09;86.17;101013.19;4435877;32;35265;-77
2021/12/17 01:36:15;;;;;;;11.95;4.60;;;;;;;3.92;86.63;100996.78;4437370;32;34345;-77
2021/12/17 01:42:08;;;;;;;9.02;4.60;;;;;;;3.76;86.75;100992.87;4436284;32;35287;-76
2021/12/17 01:44:54;;;;;;;11.77;5.12;;;;;;;3.82;86.27;101029.91;4436562;32;34424;-76
2021/12/17 01:47:41;;;;;;;9.80;5.10;;;;;;;4.10;84.20;101017.56;4436950;32;34446;-76
2021/12/17 01:57:00;;;;;;;8.45;4.50;;;;;;;4.18;82.68;101012.59;4437389;32;34972;-75
2021/12/17 01:59:48;;;;;;;7.03;3.87;;;;;;;4.06;82.22;101007.16;4434978;32;34488;-77
2021/12/17 02:02:43;;;;;;;9.55;4.32;;;;;;;4.22;81.69;100985.84;4437248;32;34689;-77
2021/12/17 02:05:33;;;;;;;8.23;3.42;;;;;;;4.16;80.78;100992.22;4436035;32;34470;-78
2021/12/17 02:08:19;;;;;;;6.95;3.45;;;;;;;3.99;81.55;101002.94;4436579;32;35421;-77
2021/12/17 02:29:42;;;;;;;7.07;3.17;;;;;;;4.01;79.43;100963.69;4437396;32;34985;-77
2021/12/17 02:32:30;;;;;;;6.82;2.72;;;;;;;3.75;80.43;100969.53;4436968;32;35715;-78
2021/12/17 02:35:34;;;;;;;8.23;3.30;;;;;;;3.72;79.99;100983.53;4424542;32;34295;-77
2021/12/17 02:38:20;;;;;;;8.43;3.47;;;;;;;3.69;79.75;101001.09;4436650;32;34635;-77
2021/12/17 02:47:25;;;;;;;6.35;3.28;;;;;;;3.85;78.65;101021.31;4437800;32;35325;-77
2021/12/17 02:50:12;;;;;;;6.53;3.12;;;;;;;3.81;78.77;101022.81;4436746;32;35456;-77
2021/12/17 02:53:01;;;;;;;7.15;3.20;;;;;;;3.80;79.07;101027.41;4436458;32;34993;-77
2021/12/17 02:56:00;;;;;;;7.60;3.65;;;;;;;3.76;79.37;101022.69;4436602;32;34947;-76
2021/12/17 02:58:46;;;;;;;8.43;3.95;;;;;;;3.74;79.84;101022.91;4436597;32;35345;-76
2021/12/17 03:01:33;;;;;;;8.30;3.72;;;;;;;3.77;79.81;101011.59;4436449;32;34383;-77
2021/12/17 03:04:26;;;;;;;9.50;3.75;;;;;;;3.78;80.06;101007.00;4435042;32;34958;-77
2021/12/17 03:07:13;;;;;;;9.35;3.78;;;;;;;3.75;80.37;101005.59;4437574;32;35818;-77
2021/12/17 03:10:05;;;;;;;8.18;4.15;;;;;;;3.59;81.44;101003.56;4437748;32;34931;-77
2021/12/17 03:13:03;;;;;;;11.40;4.47;;;;;;;3.55;82.14;100997.75;4435339;32;35449;-77
2021/12/17 03:15:55;;;;;;;10.38;4.87;;;;;;;3.53;83.01;100994.47;4437101;32;35025;-77
2021/12/17 03:24:36;;;;;;;13.15;5.72;;;;;;;3.51;85.46;100991.16;4436309;32;35585;-77
2021/12/17 03:27:25;;;;;;;11.85;5.97;;;;;;;3.50;86.67;100989.50;4439587;32;34961;-77
2021/12/17 03:30:11;;;;;;;13.50;7.70;;;;;;;3.45;87.97;101000.22;4439780;32;34924;-77
2021/12/17 03:33:00;;;;;;;14.45;7.47;;;;;;;3.38;89.22;101013.84;4439613;32;34435;-78
2021/12/17 03:35:47;;;;;;;13.80;7.62;;;;;;;3.25;89.80;101021.34;4439666;32;35536;-77
2021/12/17 03:38:34;;;;;;;15.48;8.52;;;;;;;3.37;90.17;101023.03;4438799;32;34980;-77
2021/12/17 03:41:23;;;;;;;16.35;7.70;;;;;;;3.35;91.14;101024.31;4435882;32;34861;-77
2021/12/17 03:44:12;;;;;;;15.38;7.65;;;;;;;3.24;92.46;101019.66;4438586;32;35351;-76
2021/12/17 03:47:02;;;;;;;17.33;8.52;;;;;;;3.26;92.48;101014.84;4439732;32;34581;-77
2021/12/17 03:49:49;;;;;;;17.45;9.43;;;;;;;3.55;91.87;101016.72;4438811;32;35028;-77
2021/12/17 03:52:35;;;;;;;17.95;9.45;;;;;;;3.37;91.92;101014.09;4440033;32;35769;-77
2021/12/17 03:55:22;;;;;;;16.65;9.55;;;;;;;3.21;92.85;101012.81;4437797;32;34407;-77
2021/12/17 03:58:09;;;;;;;18.05;9.27;;;;;;;3.26;93.38;100993.19;4439226;32;34657;-77
2021/12/17 04:00:56;;;;;;;18.92;10.50;;;;;;;3.43;92.71;100994.19;4429220;32;35056;-75
2021/12/17 04:03:43;;;;;;;17.33;9.90;;;;;;;3.14;93.20;100999.37;4439462;32;35106;-76
2021/12/17 04:06:33;;;;;;;16.67;8.80;;;;;;;3.44;92.06;100998.53;4437853;32;34401;-76
2021/12/17 04:09:29;;;;;;;18.62;10.18;;;;;;;3.14;93.13;101007.50;4437813;32;35658;-77
2021/12/17 04:12:23;;;;;;;16.95;9.05;;;;;;;3.15;93.04;101006.44;4439181;32;35009;-77
2021/12/17 04:15:10;;;;;;;18.05;9.10;;;;;;;3.37;91.84;101014.91;4436425;32;34883;-77
2021/12/17 04:17:58;;;;;;;17.25;7.97;;;;;;;3.10;92.30;101014.44;4437049;32;35361;-77
2021/12/17 04:20:43;;;;;;;18.30;9.05;;;;;;;3.00;92.99;101019.56;4438622;32;34684;-77
2021/12/17 04:23:31;;;;;;;17.67;10.55;;;;;;;3.03;92.54;101024.53;4437941;32;33807;-77
2021/12/17 04:26:18;;;;;;;18.30;8.43;;;;;;;3.10;92.41;101027.13;4433046;32;34935;-78
2021/12/17 04:29:07;;;;;;;16.27;8.68;;;;;;;3.23;91.13;101028.84;4438298;32;34471;-77
2021/12/17 04:31:56;;;;;;;14.90;8.07;;;;;;;3.08;91.47;101032.78;4438578;32;34571;-77
2021/12/17 04:34:42;;;;;;;17.85;9.30;;;;;;;3.05;91.83;101035.97;4433813;32;35932;-77
2021/12/17 04:37:28;;;;;;;18.02;9.10;;;;;;;3.12;91.08;101036.69;4438100;32;33855;-78
2021/12/17 04:40:20;;;;;;;15.88;8.77;;;;;;;3.04;91.84;101049.72;4438078;32;35320;-78
2021/12/17 04:46:14;;;;;;;17.00;8.57;;;;;;;3.13;91.24;101032.94;4437431;32;35029;-78
2021/12/17 04:58:19;;;;;;;17.15;8.50;;;;;;;3.27;90.41;101016.50;4438528;32;36025;-76
2021/12/17 05:01:12;;;;;;;17.10;8.95;;;;;;;3.08;91.02;101019.25;4433935;32;33754;-77
2021/12/17 05:03:59;;;;;;;16.23;8.70;;;;;;;3.25;90.33;101010.50;4437048;32;34322;-76
2021/12/17 05:06:46;;;;;;;16.33;8.73;;;;;;;3.16;91.06;101012.72;4435949;32;34636;-77
2021/12/17 05:09:53;;;;;;;16.25;8.80;;;;;;;3.15;90.99;101009.16;4436924;32;35061;-75
2021/12/17 05:19:03;;;;;;;14.65;8.52;;;;;;;3.05;91.69;100998.03;4437637;32;35560;-77
2021/12/17 05:21:53;;;;;;;16.90;8.45;;;;;;;2.99;91.78;100987.28;4436138;32;35185;-76
2021/12/17 05:24:40;;;;;;;16.80;10.00;;;;;;;2.90;92.32;100974.06;4437559;32;34930;-75
2021/12/17 05:27:26;;;;;;;14.45;7.78;;;;;;;2.87;92.26;100973.69;4435415;32;34400;-76
2021/12/17 05:30:13;;;;;;;13.68;8.60;;;;;;;2.91;92.30;100972.19;4437230;32;34590;-76
2021/12/17 05:33:01;;;;;;;14.68;8.75;;;;;;;2.90;91.86;100970.53;4435709;32;35721;-76
2021/12/17 05:35:48;;;;;;;15.10;8.93;;;;;;;2.83;92.19;100973.31;4436663;32;34908;-74
2021/12/17 05:38:34;;;;;;;17.42;9.15;;;;;;;2.94;91.44;100979.84;4435583;32;34417;-75
2021/12/17 05:41:21;;;;;;;12.55;6.68;;;;;;;2.91;91.06;100975.72;4436221;32;34293;-75
2021/12/17 05:44:14;;;;;;;16.37;7.18;;;;;;;3.00;90.77;100968.13;4437544;32;33929;-74
2021/12/17 05:47:01;;;;;;;14.82;7.00;;;;;;;3.08;90.15;100978.63;4435447;32;35731;-76
2021/12/17 05:49:47;;;;;;;13.10;7.07;;;;;;;3.03;89.92;100978.47;4437908;32;34317;-73
2021/12/17 05:52:33;;;;;;;22.80;14.23;;;;;;;3.03;89.77;100996.63;4437851;32;34673;-75
2021/12/17 05:55:20;;;;;;;14.95;8.45;;;;;;;2.86;90.70;100980.16;4436571;32;34892;-75
2021/12/17 05:58:08;;;;;;;13.90;8.07;;;;;;;2.86;90.70;100993.69;4436173;32;35815;-75
2021/12/17 06:00:56;;;;;;;14.63;7.22;;;;;;;2.77;91.35;100992.34;4437020;32;34655;-74
2021/12/17 06:03:44;;;;;;;16.87;9.30;;;;;;;2.83;90.94;100994.16;4437378;32;34617;-74
2021/12/17 06:06:36;;;;;;;11.77;7.65;;;;;;;2.75;91.41;100980.91;4435363;32;35854;-75
2021/12/17 06:09:23;;;;;;;13.15;7.28;;;;;;;2.81;90.93;100980.00;4435974;32;35780;-74
2021/12/17 06:12:12;;;;;;;13.90;8.10;;;;;;;2.83;91.26;100986.03;4434911;32;33965;-73
2021/12/17 06:14:58;;;;;;;13.57;7.80;;;;;;;2.68;91.74;100971.00;4437886;32;34708;-75
2021/12/17 06:17:50;;;;;;;13.65;7.00;;;;;;;2.79;90.99;100982.97;4433357;32;34953;-75
2021/12/17 06:20:37;;;;;;;13.32;7.28;;;;;;;2.70;91.62;101005.94;4435514;32;35814;-77
2021/12/17 06:23:25;;;;;;;15.30;8.40;;;;;;;2.67;91.62;101006.41;4433137;32;35193;-74
2021/12/17 06:26:14;;;;;;;13.93;7.10;;;;;;;2.66;91.29;101005.56;4435518;32;35535;-74
2021/12/17 06:29:04;;;;;;;14.63;9.77;;;;;;;2.86;90.69;100996.41;4433986;32;35146;-76
2021/12/17 06:31:54;;;;;;;13.57;6.80;;;;;;;2.68;90.39;100999.94;4434862;32;34942;-77
2021/12/17 06:34:43;;;;;;;14.05;6.82;;;;;;;2.73;90.70;101010.09;4424182;32;35246;-76
2021/12/17 06:37:34;;;;;;;13.02;7.12;;;;;;;2.84;89.88;101020.16;4435823;32;34668;-74
2021/12/17 06:40:26;;;;;;;13.60;8.52;;;;;;;2.66;90.33;101010.16;4434190;32;34977;-75
2021/12/17 06:43:17;;;;;;;13.73;8.95;;;;;;;2.61;90.53;101021.66;4434693;32;35714;-72
2021/12/17 06:46:25;;;;;;;13.48;6.82;;;;;;;2.62;90.33;101028.75;4434166;32;35315;-73
2021/12/17 06:54:47;;;;;;;13.00;6.72;;;;;;;2.67;89.85;101047.81;4340822;32;34545;-73
2021/12/17 07:10:30;;;;;;;14.70;7.80;;;;;;;2.77;89.20;101035.66;4358245;32;20487;-72
2021/12/17 08:01:17;;;;;;;10.98;5.97;;;;;;;3.29;85.93;101139.00;4316998;33;34503;-74
2021/12/17 08:04:16;;;;;;;9.52;4.85;;;;;;;3.30;85.71;101129.81;4302460;33;34067;-74
2021/12/17 08:10:49;;;;;;;15.02;6.43;;;;;;;3.88;83.27;101114.91;4311081;33;35999;-74
2021/12/17 08:24:47;;;;;;;9.93;5.72;;;;;;;3.84;83.19;101125.37;4485387;31;35613;-74
2021/12/17 08:28:23;;;;;;;11.88;5.45;;;;;;;4.17;80.56;101113.22;4427032;32;34998;-74
2021/12/17 08:31:46;;;;;;;11.05;5.82;;;;;;;3.78;82.39;101120.88;4425383;32;35311;-75
2021/12/17 08:41:13;;;;;;;12.30;6.35;;;;;;;3.57;83.85;101114.91;4520128;27;20101;-81
2021/12/17 08:44:00;;;;;;;11.25;5.57;;;;;;;3.53;83.84;101135.41;4283172;33;35099;-80
2021/12/17 08:46:48;;;;;;;8.90;4.90;;;;;;;3.92;82.34;101111.50;4282427;33;35105;-80
2021/12/17 08:49:38;;;;;;;11.30;5.57;;;;;;;3.64;82.89;101119.41;4281996;33;34784;-79
2021/12/17 08:52:25;;;;;;;9.82;4.75;;;;;;;3.71;82.54;101117.44;4282807;33;35035;-80
2021/12/17 08:55:12;;;;;;;11.18;6.07;;;;;;;3.86;82.12;101114.31;4282898;33;34490;-80
2021/12/17 08:57:58;;;;;;;15.43;6.85;;;;;;;3.77;82.82;101111.09;4282622;33;33934;-79
2021/12/17 09:00:46;;;;;;;14.50;5.75;;;;;;;3.88;82.46;101113.03;4283290;33;35759;-79
2021/12/17 09:03:34;;;;;;;11.30;5.87;;;;;;;4.11;82.01;101103.31;4272119;33;35023;-79
2021/12/17 09:06:24;;;;;;;10.32;5.72;;;;;;;3.95;81.94;101121.87;4292903;33;34552;-78
2021/12/17 09:09:18;;;;;;;15.02;6.12;;;;;;;4.13;81.10;101118.31;4292996;33;34241;-80
2021/12/17 09:12:05;;;;;;;11.00;4.80;;;;;;;4.33;80.06;101118.00;4283277;33;35591;-80
2021/12/17 09:14:51;;;;;;;11.05;5.57;;;;;;;4.41;79.57;101116.81;4293333;33;35901;-80
2021/12/17 09:17:40;;;;;;;11.35;5.43;;;;;;;4.46;79.77;101108.78;4284534;33;34688;-79
2021/12/17 09:20:27;;;;;;;10.85;6.18;;;;;;;4.39;79.38;101099.94;4293541;33;34154;-79
2021/12/17 09:23:14;;;;;;;12.30;5.12;;;;;;;4.03;80.75;101102.56;4283215;33;35594;-80
2021/12/17 09:26:06;;;;;;;11.63;4.97;;;;;;;4.35;79.85;101104.16;4292981;33;34927;-80
2021/12/17 09:28:53;;;;;;;9.40;5.18;;;;;;;4.37;79.78;101096.62;4282760;33;35495;-81
2021/12/17 09:31:41;;;;;;;11.30;5.85;;;;;;;4.25;79.48;101091.19;4274614;33;34150;-80
2021/12/17 09:34:28;;;;;;;12.75;5.18;;;;;;;4.33;80.21;101081.88;4273819;33;35563;-80
2021/12/17 09:37:17;;;;;;;11.12;5.70;;;;;;;4.78;78.36;101067.72;4274847;33;36021;-80
2021/12/17 09:40:06;;;;;;;10.93;4.30;;;;;;;4.56;78.56;101086.50;4281388;33;35378;-79
2021/12/17 09:42:52;;;;;;;7.75;4.00;;;;;;;4.79;78.12;101067.47;4275371;33;33793;-80
2021/12/17 09:45:38;;;;;;;8.63;4.47;;;;;;;4.95;77.24;101072.19;4274467;33;34805;-80
2021/12/17 09:48:25;;;;;;;12.93;4.20;;;;;;;5.40;74.94;101060.59;4280196;33;35083;-80
2021/12/17 09:51:13;;;;;;;10.00;4.45;;;;;;;4.91;76.88;101064.75;4284036;33;35620;-80
2021/12/17 09:54:02;;;;;;;13.52;4.40;;;;;;;5.10;76.82;101076.31;4275042;33;34237;-79
2021/12/17 09:56:48;;;;;;;8.82;4.50;;;;;;;5.24;76.54;101069.53;4275099;33;34590;-80
2021/12/17 09:59:37;;;;;;;7.53;4.30;;;;;;;5.04;76.53;101075.38;4274799;33;34985;-80
2021/12/17 10:02:23;;;;;;;9.88;4.12;;;;;;;5.40;75.38;101076.91;4274640;33;34564;-79
2021/12/17 10:05:24;;;;;;;9.15;3.85;;;;;;;5.35;75.40;101082.28;4274939;33;35131;-78
2021/12/17 10:08:13;;;;;;;8.55;4.35;;;;;;;5.37;74.25;101069.25;4277915;33;35636;-80
2021/12/17 10:11:01;;;;;;;11.20;4.20;;;;;;;5.31;75.20;101074.81;4286447;33;35045;-80
2021/12/17 10:13:48;;;;;;;6.57;3.40;;;;;;;5.38;74.49;101060.03;4283079;33;35439;-78
2021/12/17 10:16:39;;;;;;;10.73;4.07;;;;;;;5.45;73.73;101068.03;4282684;33;34683;-79
2021/12/17 10:19:46;;;;;;;8.10;2.97;;;;;;;5.64;73.88;101074.13;4273337;33;34599;-80
2021/12/17 10:22:33;;;;;;;6.78;2.50;;;;;;;5.79;71.51;101071.69;4282536;33;35060;-81
2021/12/17 10:25:21;;;;;;;8.35;3.10;;;;;;;5.63;72.17;101076.03;4280922;33;34313;-76
2021/12/17 10:28:11;;;;;;;8.27;4.10;;;;;;;5.47;71.69;101059.66;4282487;33;35119;-79
2021/12/17 10:30:58;;;;;;;7.68;3.55;;;;;;;5.58;72.51;101059.59;4282636;33;34496;-77
2021/12/17 10:33:52;;;;;;;7.50;3.42;;;;;;;5.72;72.62;101057.41;4271486;33;35613;-80
2021/12/17 10:36:43;;;;;;;7.82;3.28;;;;;;;5.91;71.86;101054.47;4282179;33;35438;-77
2021/12/17 10:39:33;;;;;;;5.53;2.70;;;;;;;5.82;72.11;101043.97;4281777;33;34148;-79
2021/12/17 10:42:30;;;;;;;9.05;3.12;;;;;;;5.94;71.88;101045.84;4273113;33;34620;-78
2021/12/17 10:45:24;;;;;;;6.72;3.25;;;;;;;5.64;71.35;101025.19;4272274;33;36017;-78
2021/12/17 10:51:43;;;;;;;9.55;3.40;;;;;;;5.55;71.96;101021.19;4280253;33;34118;-80
2021/12/17 10:54:29;;;;;;;8.88;3.55;;;;;;;5.78;71.58;101033.87;4272948;33;34750;-78
2021/12/17 10:57:15;;;;;;;8.50;3.92;;;;;;;5.96;70.30;101032.84;4282032;33;35165;-81
2021/12/17 11:00:05;;;;;;;9.55;3.75;;;;;;;5.82;71.03;101033.09;4272656;33;34620;-78
2021/12/17 11:02:52;;;;;;;8.18;3.47;;;;;;;5.91;70.93;101035.44;4279798;33;34201;-79
2021/12/17 11:05:40;;;;;;;9.13;3.28;;;;;;;5.67;70.91;101029.31;4282530;33;34181;-81
2021/12/17 11:08:33;;;;;;;8.05;3.25;;;;;;;5.83;70.59;101023.03;4271288;33;35816;-80
2021/12/17 11:11:19;;;;;;;7.55;3.65;;;;;;;5.69;71.05;101022.53;4271627;33;34811;-79
2021/12/17 11:14:06;;;;;;;7.80;3.20;;;;;;;5.66;71.29;101019.47;4272236;33;34232;-79
2021/12/17 11:16:52;;;;;;;9.73;3.28;;;;;;;5.94;70.23;101021.38;4282077;33;34554;-81
2021/12/17 11:19:40;;;;;;;8.13;3.00;;;;;;;6.20;69.91;101026.13;4280757;33;36038;-78
2021/12/17 11:22:29;;;;;;;8.68;3.25;;;;;;;5.75;69.42;101007.97;4271863;33;34610;-78
2021/12/17 11:25:19;;;;;;;11.77;3.75;;;;;;;6.00;68.94;101023.09;4280313;33;34097;-76
2021/12/17 11:28:07;;;;;;;8.70;3.20;;;;;;;5.96;70.15;101019.22;4279947;33;34214;-78
2021/12/17 11:30:54;;;;;;;6.78;2.67;;;;;;;5.85;69.24;101021.72;4281008;33;35689;-78
2021/12/17 11:33:43;;;;;;;8.32;3.10;;;;;;;5.73;69.41;101018.25;4272734;33;35572;-79
2021/12/17 11:36:29;;;;;;;8.00;3.50;;;;;;;5.91;70.10;101024.53;4282050;33;33041;-76
2021/12/17 11:39:22;;;;;;;7.93;2.65;;;;;;;6.18;68.81;101025.59;4272768;33;34690;-79
2021/12/17 11:42:29;;;;;;;9.85;2.75;;;;;;;6.09;68.47;101016.19;4280766;33;34928;-76
2021/12/17 11:45:23;;;;;;;8.05;3.40;;;;;;;6.19;69.33;101012.78;4271034;33;34709;-79
2021/12/17 11:48:18;;;;;;;11.23;2.90;;;;;;;6.06;69.64;101027.53;4279980;33;34991;-80
2021/12/17 11:51:13;;;;;;;9.15;2.75;;;;;;;5.98;69.78;101025.25;4271362;33;34498;-77
2021/12/17 11:54:13;;;;;;;7.78;2.90;;;;;;;6.12;69.06;101010.25;4271854;33;35919;-80
2021/12/17 11:57:11;;;;;;;10.30;3.90;;;;;;;6.04;69.46;101018.81;4280177;33;34604;-77
2021/12/17 11:59:58;;;;;;;6.95;2.65;;;;;;;6.10;68.89;101014.28;4269575;33;34770;-77
2021/12/17 12:02:49;;;;;;;8.52;3.33;;;;;;;6.07;69.10;101015.59;4271375;33;35595;-79
2021/12/17 12:05:38;;;;;;;9.50;3.25;;;;;;;6.03;69.09;101023.44;4271612;33;36112;-78
2021/12/17 12:11:33;;;;;;;8.07;2.97;;;;;;;6.22;67.68;101032.16;4272340;33;34711;-79
2021/12/17 12:14:32;;;;;;;8.18;2.45;;;;;;;6.39;67.14;101036.78;4280562;33;34535;-76
2021/12/17 12:17:57;;;;;;;7.35;2.70;;;;;;;5.95;68.37;101028.44;4271352;33;34669;-76
2021/12/17 12:20:46;;;;;;;8.45;2.72;;;;;;;5.76;69.17;101034.09;4269318;33;34474;-78
2021/12/17 12:23:33;;;;;;;7.30;2.50;;;;;;;5.97;67.92;101029.84;4271791;33;35175;-80
2021/12/17 12:26:22;;;;;;;29.40;13.45;;;;;;;5.92;68.30;101039.78;4271694;33;35641;-80
2021/12/17 12:29:30;;;;;;;7.43;2.90;;;;;;;6.02;68.22;101031.84;4280904;33;34629;-78
2021/12/17 12:32:20;;;;;;;7.82;2.90;;;;;;;6.15;67.41;101025.22;4272795;33;34590;-76
2021/12/17 12:35:09;;;;;;;6.03;2.70;;;;;;;5.97;67.47;101015.44;4272478;33;33767;-78
2021/12/17 12:38:20;;;;;;;6.75;3.00;;;;;;;5.96;67.65;101021.94;4280764;33;34575;-76
2021/12/17 12:41:07;;;;;;;6.47;2.90;;;;;;;5.96;67.97;101016.50;4280723;33;35053;-81
2021/12/17 12:43:53;;;;;;;9.35;4.35;;;;;;;5.79;68.55;101011.84;4272672;33;35369;-81
2021/12/17 12:46:49;;;;;;;6.70;2.90;;;;;;;6.03;68.36;101022.59;4281618;33;34102;-77
2021/12/17 12:49:48;;;;;;;5.70;2.83;;;;;;;6.12;68.25;101021.13;4271460;33;34758;-79
2021/12/17 12:52:45;;;;;;;6.47;3.05;;;;;;;6.22;67.60;101010.41;4281310;33;35037;-80
2021/12/17 12:55:40;;;;;;;7.70;2.10;;;;;;;6.17;67.84;101021.19;4272903;33;34517;-79
2021/12/17 12:58:27;;;;;;;9.30;3.35;;;;;;;6.40;66.91;101027.53;4272448;33;34269;-78
2021/12/17 13:01:17;;;;;;;7.62;2.72;;;;;;;6.08;67.01;101020.78;4281493;33;35196;-79
2021/12/17 13:04:07;;;;;;;8.65;2.65;;;;;;;6.28;67.05;101019.47;4274310;33;36476;-80
2021/12/17 13:06:53;;;;;;;7.32;3.17;;;;;;;6.13;67.80;101019.25;4283977;33;35497;-80
2021/12/17 13:09:44;;;;;;;9.07;3.28;;;;;;;6.19;67.55;101021.78;4274192;33;34228;-79
2021/12/17 13:12:29;;;;;;;13.48;3.87;;;;;;;5.95;68.69;101023.00;4283581;33;34490;-80
2021/12/17 13:24:20;;;;;;;7.65;2.87;;;;;;;5.70;69.58;101029.63;4274531;33;35656;-78
2021/12/17 13:27:11;;;;;;;6.82;2.80;;;;;;;5.78;69.70;101015.63;4283347;33;34906;-79
2021/12/17 13:29:58;;;;;;;12.88;3.35;;;;;;;5.78;69.61;101015.63;4274689;33;35423;-80
2021/12/17 13:32:47;;;;;;;7.40;2.97;;;;;;;5.86;69.90;101017.97;4273360;33;34244;-77
2021/12/17 13:35:34;;;;;;;6.50;2.78;;;;;;;5.46;70.12;101041.69;4282622;33;34697;-80
2021/12/17 13:38:21;;;;;;;6.72;2.42;;;;;;;5.61;69.65;101009.34;4274099;33;35072;-77
2021/12/17 13:41:10;;;;;;;8.80;2.97;;;;;;;5.45;70.54;101026.44;4273208;33;34613;-79
2021/12/17 13:43:56;;;;;;;8.10;3.10;;;;;;;5.54;69.75;101024.97;4273528;33;34279;-79
2021/12/17 13:46:43;;;;;;;7.20;2.90;;;;;;;5.44;69.92;101030.25;4272362;33;34286;-77
2021/12/17 13:49:30;;;;;;;10.63;2.92;;;;;;;5.40;70.35;101019.00;4283146;33;35984;-78
2021/12/17 13:52:20;;;;;;;6.50;2.47;;;;;;;5.54;69.65;101041.28;4273396;33;34586;-79
2021/12/17 13:55:10;;;;;;;15.93;8.23;;;;;;;5.25;70.37;101027.69;4282300;33;34126;-79
2021/12/17 13:57:57;;;;;;;18.30;8.98;;;;;;;5.09;70.94;101044.75;4272240;33;34702;-81
2021/12/17 14:00:49;;;;;;;10.50;4.57;;;;;;;5.27;70.38;101035.62;4282756;33;35992;-80
2021/12/17 14:03:38;;;;;;;13.48;7.43;;;;;;;5.43;70.20;101050.31;4282932;33;34069;-79
2021/12/17 14:06:28;;;;;;;8.77;3.53;;;;;;;5.03;71.10;101048.44;4282212;33;35099;-79
2021/12/17 14:09:19;;;;;;;9.40;3.00;;;;;;;5.22;70.53;101052.62;4273827;33;34279;-80
2021/12/17 14:12:31;;;;;;;9.77;5.28;;;;;;;5.35;70.04;101055.09;4280928;33;36281;-82
2021/12/17 14:15:39;;;;;;;7.35;2.50;;;;;;;5.17;70.75;101053.34;4280605;33;35245;-81
2021/12/17 14:18:27;;;;;;;10.73;3.00;;;;;;;5.07;70.77;101046.91;4282581;33;34180;-78
2021/12/17 14:21:13;;;;;;;7.03;3.05;;;;;;;4.96;70.87;101046.69;4274689;33;34605;-79
2021/12/17 14:23:59;;;;;;;6.75;3.00;;;;;;;4.91;71.41;101051.19;4278409;33;34981;-80
2021/12/17 14:26:46;;;;;;;8.82;2.90;;;;;;;5.06;71.02;101034.38;4284558;33;34698;-80
2021/12/17 14:29:38;;;;;;;7.78;2.70;;;;;;;4.80;71.76;101035.72;4283113;33;32971;-80
2021/12/17 14:32:25;;;;;;;8.00;2.87;;;;;;;4.83;71.43;101030.63;4283266;33;35736;-80
2021/12/17 14:35:12;;;;;;;8.88;4.35;;;;;;;4.66;72.24;101025.09;4278046;33;36001;-80
2021/12/17 14:38:03;;;;;;;7.30;2.80;;;;;;;4.93;71.44;101027.31;4282393;33;33521;-80
2021/12/17 14:40:57;;;;;;;9.57;4.03;;;;;;;4.59;72.48;101034.47;4274118;33;34660;-80
2021/12/17 14:43:53;;;;;;;11.10;3.25;;;;;;;4.40;73.57;101026.41;4280949;33;35657;-81
2021/12/17 14:47:08;;;;;;;8.85;3.17;;;;;;;4.39;73.51;101030.22;4281589;33;36033;-81
2021/12/17 15:00:15;;;;;;;10.98;3.25;;;;;;;4.23;74.43;101018.16;4267873;33;36041;-85
2021/12/17 15:05:06;;;;;;;7.85;3.03;;;;;;;4.04;75.38;101022.88;4267154;33;34211;-85
2021/12/17 15:07:54;;;;;;;10.88;3.70;;;;;;;4.10;75.07;101009.41;4269946;33;34428;-85
2021/12/17 15:10:41;;;;;;;22.30;11.15;;;;;;;4.05;75.63;101013.66;4269236;33;35051;-81
2021/12/17 15:13:28;;;;;;;14.68;7.30;;;;;;;3.88;76.03;101022.72;4277643;33;34298;-85
2021/12/17 15:16:14;;;;;;;10.63;3.50;;;;;;;3.99;75.61;101011.91;4268024;33;35065;-85
2021/12/17 15:19:04;;;;;;;8.70;4.18;;;;;;;4.03;75.56;101018.50;4268123;33;34699;-82
2021/12/17 15:21:50;;;;;;;8.77;4.20;;;;;;;3.90;76.02;101005.16;4279186;33;35035;-85
2021/12/17 15:24:56;;;;;;;13.38;5.12;;;;;;;3.98;75.72;101004.81;4269492;33;34584;-83
2021/12/17 15:27:43;;;;;;;9.50;4.07;;;;;;;3.87;76.29;101027.31;4269090;33;35219;-85
2021/12/17 15:30:33;;;;;;;12.05;4.40;;;;;;;3.99;75.67;101014.59;4276555;33;36603;-86
2021/12/17 15:33:20;;;;;;;14.27;5.18;;;;;;;3.85;75.80;101015.06;4267457;33;35723;-86
2021/12/17 15:36:09;;;;;;;9.77;3.87;;;;;;;3.73;76.76;101013.16;4270176;33;35123;-87
2021/12/17 15:38:54;;;;;;;12.73;4.22;;;;;;;3.90;75.79;101021.44;4269725;33;35158;-85
2021/12/17 15:41:42;;;;;;;10.15;3.47;;;;;;;3.65;76.72;101024.31;4269062;33;34513;-86
2021/12/17 15:44:28;;;;;;;9.40;3.15;;;;;;;3.89;75.78;101019.75;4278969;33;35030;-85
2021/12/17 15:47:14;;;;;;;7.35;3.50;;;;;;;3.82;76.11;101009.03;4268585;33;34522;-86
2021/12/17 15:50:02;;;;;;;11.98;3.75;;;;;;;3.72;76.53;101018.78;4269531;33;34406;-83
2021/12/17 15:52:49;;;;;;;9.80;4.75;;;;;;;3.67;76.44;101021.34;4268787;33;35515;-84
2021/12/17 15:55:39;;;;;;;11.95;4.43;;;;;;;3.54;76.98;101015.09;4277026;33;35160;-84
2021/12/17 15:58:25;;;;;;;18.08;3.80;;;;;;;3.55;76.98;101019.44;4277952;33;34560;-85
2021/12/17 16:01:12;;;;;;;9.20;3.58;;;;;;;3.58;77.01;101013.56;4277509;33;34562;-84
2021/12/17 16:03:58;;;;;;;10.18;3.50;;;;;;;3.71;76.21;101012.53;4278573;33;37108;-84
2021/12/17 16:06:48;;;;;;;8.02;4.10;;;;;;;3.70;76.39;100996.50;4276578;33;34764;-85
2021/12/17 16:20:59;;;;;;;9.00;3.58;;;;;;;3.65;76.15;101012.66;4269049;33;33896;-84
2021/12/17 16:22:02;;;;;;;10.38;4.18;;;;;;;3.64;76.07;101016.41;4268812;33;35335;-83
2021/12/17 16:24:49;;;;;;;10.70;4.05;;;;;;;3.47;76.74;101006.25;4268162;33;35090;-84
2021/12/17 16:27:35;;;;;;;7.97;3.40;;;;;;;3.58;76.19;101013.56;4266718;33;34629;-84
2021/12/17 16:30:23;;;;;;;10.85;3.50;;;;;;;3.50;76.78;101003.06;4268378;33;34547;-84
2021/12/17 16:33:10;;;;;;;11.10;3.90;;;;;;;3.59;76.69;101006.28;4267695;33;35577;-83
2021/12/17 16:35:59;;;;;;;10.95;3.62;;;;;;;3.78;75.93;101010.53;4268150;33;34093;-83
2021/12/17 16:38:46;;;;;;;11.07;4.35;;;;;;;3.73;75.97;101010.44;4269319;33;34217;-82
2021/12/17 16:41:33;;;;;;;9.32;3.03;;;;;;;3.82;75.08;101014.47;4276828;33;34804;-84
2021/12/17 16:44:35;;;;;;;9.82;3.70;;;;;;;3.66;76.33;101019.72;4270026;33;33266;-84
2021/12/17 16:47:42;;;;;;;12.02;3.25;;;;;;;3.59;76.19;101009.81;4269116;33;34078;-84
2021/12/17 16:50:29;;;;;;;8.25;3.15;;;;;;;3.67;76.15;101011.38;4267823;33;34609;-84
2021/12/17 16:53:17;;;;;;;7.97;3.78;;;;;;;3.80;75.85;101004.91;4268869;33;35089;-82
2021/12/17 16:56:05;;;;;;;9.38;3.95;;;;;;;3.61;76.55;101001.44;4278004;33;34140;-84
2021/12/17 16:58:51;;;;;;;12.48;4.05;;;;;;;3.60;76.78;101005.19;4277799;33;34938;-84
2021/12/17 17:01:39;;;;;;;9.98;3.90;;;;;;;3.59;77.08;101009.81;4275649;33;35215;-83
2021/12/17 17:04:26;;;;;;;8.95;3.65;;;;;;;3.81;76.07;101006.53;4269274;33;36075;-83
2021/12/17 17:07:12;;;;;;;12.52;3.80;;;;;;;3.58;77.02;101010.84;4277345;33;35068;-84